CheckWX is a tool to help pilots better visualize weather data.  It is not intended as a substitute for an official pre-flight weather briefing.

22:05:39 UTC

KCGS METAR
College Park Airport
College Park, Maryland, USA
Current

11 mins ago

KCGS 082155Z AUTO 14005KT 10SM CLR 31/20 A2992 RMK AO1 T03100197
Observed
Jul-8 @ 21:55 UTC
Wind
  • 140° at 5 KTS
Visibility
10 SM
Flight Rules
VFR
Cloud Levels
  • Clear skies
Temperature
31°C / 88°F
Dewpoint
20°C / 68°F
Humidity
52%
Altimeter
29.92" Hg
Pressure
1013.22 hPa
Previous

31 mins ago

KCGS 082135Z AUTO 14004KT 10SM CLR 31/19 A2991 RMK AO1 T03110190
Observed
Jul-8 @ 21:35 UTC
Wind
  • 140° at 4 KTS
Visibility
10 SM
Flight Rules
VFR
Cloud Levels
  • Clear skies
Temperature
31°C / 88°F
Dewpoint
19°C / 66°F
Humidity
49%
Altimeter
29.91" Hg
Pressure
1012.92 hPa
Previous

51 mins ago

KCGS 082115Z AUTO 15006KT 10SM SCT048 31/19 A2992 RMK AO1 T03090188
Observed
Jul-8 @ 21:15 UTC
Wind
  • 150° at 6 KTS
Visibility
10 SM
Flight Rules
VFR
Cloud Levels
  • Scattered at 4,800' AGL
Temperature
31°C / 88°F
Dewpoint
19°C / 66°F
Humidity
49%
Altimeter
29.92" Hg
Pressure
1013.22 hPa